Tiempo atmosférico en la estación meteorológica de Lagunas De Somoza, León (1020 m.)



Fecha
DESCASC
Temp. máxima en grados centígrados (hora)
DESCASC
Temp. mínima en grados centígrados (hora)
DESCASC
Temp. media en grados centígrados
DESCASC
Racha de viento máxima en m/sg (hora)
DESCASC
Velocidad máxima media en intervalos de 10 minutos(hora)
DESCASC
Precipitaciones diarias en mm
DESCASC
Precipitaciones de 00:00 a 06:00 en mm
DESCASC
Precipitaciones de 06:00 a 12:00 en mm
DESCASC
Precipitaciones de 12:00 a 18:00 en mm
DESCASC
Precipitaciones de 18:00 a 24:00 en mm
DESCASC
15-09-2019 21.2 (13:00) 12.9 (00:00) 17.1 6.94 (13:50) 3.89 (13:40) 3.5 0 2.2 1.3 0
17-09-2019 26.2 (15:30) 14.9 (00:00) 20.6 8.33 (17:20) 5.56 (17:20) 19.2 0 0 0.5 18.7
25-08-2019 26.4 (13:20) 16.6 (00:00) 21.5 12.5 (13:50) 8.06 (13:50) 0.7 0 0 0.1 0.6
05-09-2019 23.4 (17:40) 6.5 (00:00) 14.9 13.33 (20:00) 4.44 (20:20) 0 0 0 0 0
19-09-2019 26.7 (16:40) 12.2 (00:00) 19.5 8.33 (15:10) 3.89 (15:10) 0 0 0 0 0
18-09-2019 25.4 (18:50) 11.4 (00:00) 18.4 7.22 (00:20) 4.17 (00:20) 0.2 0.2 0 0 0
16-09-2019 24.8 (18:00) 14.2 (00:00) 19.5 8.06 (15:30) 3.61 (18:10) 1 0.8 0.2 0 0
14-09-2019 27.2 (16:50) 14 (00:00) 20.6 11.39 (19:00) 6.11 (18:50) 0.7 0.1 0.3 0 0.3
13-09-2019 29.5 (15:50) 11.1 (00:00) 20.3 14.44 (19:20) 8.33 (18:00) 0 0 0 0 0
12-09-2019 28.2 (19:10) 8.3 (00:00) 18.3 8.06 (15:10) 3.89 (14:10) 0 0 0 0 0
11-09-2019 24.8 (16:40) 8.8 (00:00) 16.8 8.89 (13:50) 5.56 (02:10) 0 0 0 0 0
10-09-2019 18.6 (17:00) 8.2 (08:10) 13.4 20 (09:50) 10.28 (11:50) 0 0 0 0 0
09-09-2019 24 (14:10) 7 (07:40) 15.5 19.72 (18:10) 8.89 (21:10) 0 0 0 0 0
08-09-2019 25.7 (17:10) 6.8 (00:00) 16.3 7.78 (16:50) 3.89 (17:30) 0 0 0 0 0
07-09-2019 24.4 (19:00) 4.4 (00:00) 14.4 8.33 (14:40) 4.44 (14:40) 0 0 0 0 0
06-09-2019 22.7 (19:10) 5.3 (00:00) 14 8.33 (12:40) 4.44 (12:40) 0 0 0 0 0
21-08-2019 29.3 (17:30) 10 (00:00) 19.6 6.67 (18:40) 3.33 (19:10) 0 0 0 0 0
04-09-2019 31 (16:10) 10.7 (00:00) 20.8 8.33 (19:00) 5 (19:00) 0 0 0 0 0
03-09-2019 29.7 (17:50) 8.8 (00:00) 19.3 10.56 (17:30) 4.17 (19:00) 0 0 0 0 0
02-09-2019 25.8 (19:30) 8.8 (00:00) 17.3 7.5 (18:40) 3.89 (15:50) 0 0 0 0 0
01-09-2019 26.4 (16:10) 13 (00:00) 19.7 8.61 (18:40) 5.56 (18:30) 0 0 0 0 0
31-08-2019 32.8 (15:20) 14 (00:00) 23.4 16.67 (16:40) 6.39 (20:00) 0 0 0 0 0
30-08-2019 32.5 (18:20) 13.2 (00:00) 22.8 10.56 (15:20) 5.83 (15:10) 0 0 0 0 0
29-08-2019 31.8 (18:50) 13 (00:00) 22.4 8.61 (18:20) 5.28 (21:50) 0 0 0 0 0
28-08-2019 29.8 (16:10) 12.1 (00:00) 20.9 7.78 (17:10) 4.44 (20:30) 0 0 0 0 0
27-08-2019 29.2 (16:40) 11.3 (00:00) 20.3 8.33 (18:20) 5.28 (18:10) 0 0 0 0 0
26-08-2019 25.3 (18:30) 14.5 (00:00) 19.9 9.72 (14:00) 5.83 (14:20) 0 0 0 0 0
24-08-2019 32.4 (14:30) 14.5 (00:00) 23.5 9.72 (18:00) 6.11 (17:50) 0 0 0 0 0
23-08-2019 31.9 (16:40) 10.2 (00:00) 21 11.11 (17:00) 4.72 (14:50) 0 0 0 0 0
22-08-2019 29.4 (17:00) 9.8 (00:00) 19.6 7.5 (18:40) 3.89 (18:40) 0 0 0 0 0

Gráficas

Temp. máximas Temp. mínimas Temp. medias Precipitaciones Rachas de viento máximas Velocidades máximas media en intervalos de 10 minutos

Datos horarios

Fecha y hora oficial Temperatura (ºC) Velocidad del viento (km/h) Dirección del viento Racha (km/h) Dirección de racha Precipitación (mm) Presión (hPa) Tendencia (hPa) Humedad (%)
2019-09-19 23:00:00 15.5 -- -- 10 Norte 0 902.6 1 76
2019-09-19 22:00:00 16.6 -- -- 8 Norte 0 902.3 0.6 70
2019-09-19 21:00:00 18.9 -- -- 11 Norte 0 902.1 0.4 56
2019-09-19 20:00:00 21 -- -- 15 Norte 0 901.6 -0.2 46
2019-09-19 19:00:00 23.9 -- -- 15 Norte 0 901.7 -0.6 34
2019-09-19 18:00:00 24.5 -- -- 19 Norte 0 901.7 -1 33
2019-09-19 17:00:00 25.5 -- -- 22 Norte 0 901.8 -1.6 30
2019-09-19 16:00:00 25.8 -- -- 30 Norte 0 902.3 -1.6 33
2019-09-19 15:00:00 25.5 -- -- 20 Norte 0 902.7 -1.5 34
2019-09-19 14:00:00 24.3 -- -- 19 Norte 0 903.4 -0.9 38
2019-09-19 13:00:00 22.6 -- -- 15 Norte 0 903.9 -0.4 44
2019-09-19 12:00:00 21.4 -- -- 14 Norte 0 904.2 0.2 48
2019-09-19 11:00:00 19.8 -- -- 7 Norte 0 904.3 0.5 68
2019-09-19 10:00:00 17.3 -- -- 4 Norte 0 904.3 0.5 95
2019-09-19 09:00:00 13.5 -- -- 6 Norte 0 904 0.2 97
2019-09-19 08:00:00 12.5 -- -- 5 Norte 0 903.8 -0.2 97
2019-09-19 07:00:00 12.4 -- -- 7 Norte 0 903.8 -0.4 97
2019-09-19 06:00:00 12.7 -- -- 4 Norte 0 903.8 -0.7 97
2019-09-19 05:00:00 13.5 -- -- 6 Norte 0 904 -0.3 96
2019-09-19 04:00:00 13.9 -- -- 5 Norte 0 904.2 0 94
2019-09-19 03:00:00 15.1 -- -- 10 Norte 0 904.5 0.4 87
2019-09-19 02:00:00 14.7 -- -- 10 Norte 0 904.3 0.2 89
2019-09-19 01:00:00 14.9 -- -- 8 Norte 0 904.2 0.4 86
2019-09-19 00:00:00 15.7 -- -- 10 Norte 0 904.1 0.7 82
2019-09-18 23:00:00 17.1 -- -- 11 Norte 0 904.1 1.2 76
2019-09-18 22:00:00 17.3 -- -- 9 Norte 0 903.8 1.2 72
2019-09-18 21:00:00 19.1 -- -- 8 Norte 0 903.4 0.7 66
2019-09-18 20:00:00 22.6 -- -- 14 Norte 0 902.9 -0.2 46
2019-09-18 19:00:00 25.3 -- -- 8 Norte 0 902.6 -0.7 37
2019-09-18 18:00:00 24 -- -- 16 Norte 0 902.7 -1 37
2019-09-18 17:00:00 23.3 -- -- 21 Norte 0 903.1 -0.9 39
2019-09-18 16:00:00 24 -- -- 17 Norte 0 903.3 -0.9 40
2019-09-18 15:00:00 23.9 -- -- 15 Norte 0 903.7 0 41
2019-09-18 14:00:00 21.7 -- -- 18 Norte 0 904 0.1 52
2019-09-18 13:00:00 21.6 -- -- 15 Norte 0 904.2 0.6 54
2019-09-18 12:00:00 19.6 -- -- 10 Norte 0 903.7 0.8 59
2019-09-18 11:00:00 19 -- -- 8 Norte 0 903.9 1.2 69
2019-09-18 10:00:00 16.5 -- -- 16 Norte 0 903.6 1.1 83
2019-09-18 09:00:00 14 -- -- 11 Norte 0 902.9 0.1 93
2019-09-18 08:00:00 11.9 -- -- 10 Norte 0 902.7 0 96
2019-09-18 07:00:00 12 -- -- 10 Norte 0 902.5 -0.2 96
2019-09-18 06:00:00 11.5 -- -- 8 Norte 0 902.8 -0.4 97
2019-09-18 05:00:00 12.6 -- -- 8 Norte 0 902.7 -0.9 94
2019-09-18 04:00:00 13.5 -- -- 16 Norte 0 902.7 -1.4 93
2019-09-18 03:00:00 14 -- -- 14 Norte 0 903.2 -0.6 95
2019-09-18 02:00:00 14.5 -- -- 8 Norte 0.1 903.6 0.6 93
2019-09-18 01:00:00 15 -- -- 26 Norte 0.1 904.1 0.7 91
2019-09-18 00:00:00 15.4 -- -- 24 Norte 0 903.8 1 80
2019-09-17 23:00:00 15.2 -- -- 23 Norte 1.4 903 1.1 83
2019-09-17 22:00:00 15.7 -- -- 27 Norte 7.1 903.4 1.1 83
2019-09-17 21:00:00 17.6 -- -- 22 Norte 0 902.8 0.8 84
2019-09-15 18:00:00 21.1 -- -- 15 Norte 0 905.6 -1.5 65
2019-09-15 17:00:00 18.9 -- -- 14 Norte 0.1 906 -1.3 81
2019-09-15 16:00:00 18.4 -- -- 8 Norte 1 906.6 -0.5 84
2019-09-15 15:00:00 17.2 -- -- 19 Norte 0.2 907.1 -0.6 79
2019-09-15 14:00:00 20 -- -- 25 Norte 0 907.3 -0.1 58
2019-09-15 13:00:00 21.2 -- -- 13 Norte 0 907.1 -0.9 58
2019-09-15 12:00:00 18.5 -- -- 13 Norte 1.3 907.7 0.7 77
2019-09-15 11:00:00 16.7 -- -- 14 Norte 0.1 907.4 0.2 85
2019-09-15 10:00:00 16.1 -- -- 12 Norte 0 908 0.7 92
2019-09-15 09:00:00 15.2 -- -- 13 Norte 0.1 907 0 93
2019-09-15 08:00:00 14.8 -- -- 19 Norte 0.6 907.2 -0.2 93
2019-09-15 07:00:00 15.5 -- -- 13 Norte 0.1 907.3 -0.2 90
2019-09-15 06:00:00 13.9 -- -- 12 Norte 0 907 -1.1 94
2019-09-15 05:00:00 13.4 -- -- 13 Norte 0 907.4 -1 94
2019-09-15 04:00:00 14.1 -- -- 9 Norte 0 907.5 -0.9 93
2019-09-15 03:00:00 14.7 -- -- 6 Norte 0 908.1 -0.3 91
2019-09-15 02:00:00 15.5 -- -- 8 Norte 0 908.4 0.2 86
2019-09-15 01:00:00 16.9 -- -- 10 Norte 0 908.4 0.2 81
2019-09-15 00:00:00 17.4 -- -- 10 Norte 0.1 908.4 1.3 83
2019-09-14 23:00:00 17.4 -- -- 19 Norte 0.2 908.2 1.5 84
2019-09-14 22:00:00 20.4 -- -- 31 Norte 0 908.2 1.8 52
2019-09-14 21:00:00 22.2 -- -- 30 Norte 0 907.1 0.9 43
2019-09-14 20:00:00 24.2 -- -- 31 Norte 0 906.7 0 37
2019-09-14 19:00:00 25.7 -- -- 41 Norte 0 906.4 -1 36
2019-09-14 18:00:00 25.3 -- -- 39 Norte 0 906.2 -2.1 37
2019-09-14 17:00:00 25.3 -- -- 35 Norte 0 906.7 -1.9 37
2019-09-14 16:00:00 25.5 -- -- 35 Norte 0 907.4 -1.9 40
2019-09-14 15:00:00 24.1 -- -- 32 Norte 0 908.3 -1.8 43
2019-09-14 14:00:00 23.8 -- -- 29 Norte 0 908.6 -1.8 48
2019-09-14 13:00:00 22.5 -- -- 24 Norte 0 909.3 -1.4 56
2019-09-14 12:00:00 20.2 -- -- 19 Norte 0 910.1 -0.3 69
2019-09-14 11:00:00 17.2 -- -- 17 Norte 0.1 910.4 0.5 83
2019-09-14 10:00:00 16 -- -- 23 Norte 0.2 910.7 0.9 87
2019-09-14 09:00:00 17.2 -- -- 14 Norte 0 910.4 0.6 70
2019-09-14 08:00:00 16.6 -- -- 14 Norte 0 909.9 0 74
2019-09-14 07:00:00 16.3 -- -- 12 Norte 0 909.8 -0.7 78
2019-09-14 06:00:00 15.1 -- -- 8 Norte 0 909.8 -1.1 90
2019-09-14 05:00:00 14.7 -- -- 10 Norte 0 909.9 -1.3 87
2019-09-14 04:00:00 15.8 -- -- 13 Norte 0.1 910.5 -0.5 85
2019-09-14 03:00:00 17.5 -- -- 19 Norte 0 910.9 -0.4 69
2019-09-14 02:00:00 18 -- -- 12 Norte 0 911.2 -0.2 62
2019-09-14 01:00:00 17.6 -- -- 5 Norte 0 911 -0.3 64
2019-09-14 00:00:00 18.2 -- -- 10 Norte 0 911.3 0.7 63
2019-09-13 23:00:00 16.4 -- -- 7 Norte 0 911.4 1.2 59
2019-09-13 22:00:00 18.3 -- -- 12 Norte 0 911.3 2 52
2019-09-13 21:00:00 19.9 -- -- 31 Norte 0 910.6 1.6 46
2019-09-13 20:00:00 21.7 -- -- 52 Norte 0 910.2 1.3 39
2019-09-13 19:00:00 26 -- -- 40 Norte 0 909.3 0.2 32
2019-09-13 18:00:00 27.2 -- -- 46 Norte 0 909 -1 29
2019-09-13 17:00:00 28.4 -- -- 46 Norte 0 908.9 -2.1 27
2019-09-13 16:00:00 29.1 -- -- 36 Norte 0 909.1 -2.6 27
2019-09-13 15:00:00 28.3 -- -- 27 Norte 0 910 -1.9 28
2019-09-13 14:00:00 27.1 -- -- 28 Norte 0 911 -1.3 28
2019-09-13 13:00:00 26.2 -- -- 24 Norte 0 911.7 -0.9 34
2019-09-13 12:00:00 24.4 -- -- 16 Norte 0 911.9 -0.7 39
2019-09-13 11:00:00 22.2 -- -- 10 Norte 0 912.3 -0.5 43
2019-09-13 10:00:00 20 -- -- 10 Norte 0 912.6 0.1 48
2019-09-13 09:00:00 14.1 -- -- 10 Norte 0 912.6 -0.4 73
2019-09-13 08:00:00 12 -- -- 13 Norte 0 912.8 -0.3 77
2019-09-13 07:00:00 11.3 -- -- 11 Norte 0 912.5 -0.7 78
2019-09-13 06:00:00 11.5 -- -- 9 Norte 0 913 -0.2 74
2019-09-13 05:00:00 12.5 -- -- 7 Norte 0 913.1 0 69
2019-09-13 04:00:00 14.4 -- -- 11 Norte 0 913.2 0 63
2019-09-13 03:00:00 14.6 -- -- 12 Norte 0 913.2 0.2 64
2019-09-13 02:00:00 14.2 -- -- 10 Norte 0 913.1 0.4 63
2019-09-13 01:00:00 14.7 -- -- 8 Norte 0 913.2 0.8 58
2019-09-13 00:00:00 16.2 -- -- 7 Norte 0 913 1.2 50
2019-09-12 23:00:00 17.3 -- -- 9 Norte 0 912.7 0.9 46
2019-09-12 22:00:00 17.9 -- -- 12 Norte 0 912.4 0.7 42
2019-09-12 21:00:00 21.8 -- -- 13 Norte 0 911.8 0.1 33
2019-09-12 20:00:00 25.8 -- -- 17 Norte 0 911.8 -0.3 28
2019-09-12 19:00:00 27.6 -- -- 19 Norte 0 911.7 -1.1 26
2019-09-12 18:00:00 27.6 -- -- 23 Norte 0 911.7 -1.6 26
2019-09-12 17:00:00 27.6 -- -- 20 Norte 0 912.1 -1.5 27
2019-09-12 16:00:00 26.7 -- -- 29 Norte 0 912.8 -1.1 28
2019-09-12 15:00:00 26.2 -- -- 22 Norte 0 913.3 -0.7 28
2019-09-12 14:00:00 25.4 -- -- 22 Norte 0 913.6 0 28
2019-09-12 13:00:00 24.5 -- -- 19 Norte 0 913.9 0.3 30
2019-09-12 12:00:00 23.1 -- -- 16 Norte 0 914 0.3 33
2019-09-12 11:00:00 20.4 -- -- 14 Norte 0 913.6 0 39
2019-09-12 10:00:00 17.3 -- -- 13 Norte 0 913.6 0.7 46
2019-09-12 09:00:00 12.3 -- -- 13 Norte 0 913.7 1.1 66
2019-09-12 08:00:00 8.8 -- -- 10 Norte 0 913.6 1.2 75
2019-09-12 07:00:00 8.6 -- -- 12 Norte 0 912.9 0.4 75
2019-09-12 06:00:00 9.7 -- -- 16 Norte 0 912.6 -0.2 73
2019-09-12 05:00:00 10 -- -- 16 Norte 0 912.4 -0.7 80
2019-09-12 04:00:00 9.8 -- -- 14 Norte 0 912.5 -0.4 84
2019-09-12 03:00:00 9 -- -- 9 Norte 0 912.8 -0.1 83
2019-09-12 02:00:00 10.1 -- -- 11 Norte 0 913.1 0.9 80
2019-09-12 01:00:00 10.2 -- -- 7 Norte 0 912.9 1.2 74
2019-09-12 00:00:00 11.3 -- -- 6 Norte 0 912.9 2.3 67
2019-09-11 23:00:00 12.7 -- -- 10 Norte 0 912.2 2.3 61
2019-09-11 22:00:00 15.8 -- -- 13 Norte 0 911.7 2 50
2019-09-11 21:00:00 18.3 -- -- 23 Norte 0 910.6 1 44
2019-09-11 20:00:00 21.3 -- -- 24 Norte 0 909.9 0.1 37
2019-09-11 19:00:00 24.5 -- -- 23 Norte 0 909.7 0 31
2019-09-11 18:00:00 24.4 -- -- 24 Norte 0 909.6 -0.5 30
2019-09-11 17:00:00 24.1 -- -- 24 Norte 0 909.8 -1 31
2019-09-11 16:00:00 23.6 -- -- 29 Norte 0 909.7 -1.2 33
2019-09-11 15:00:00 22.8 -- -- 26 Norte 0 910.1 -0.7 35
2019-09-11 14:00:00 21.1 -- -- 32 Norte 0 910.8 -0.1 41
2019-09-11 13:00:00 19.9 -- -- 27 Norte 0 910.9 0.6 44
2019-09-11 12:00:00 18.4 -- -- 19 Norte 0 910.8 1.3 49
2019-09-11 11:00:00 16.7 -- -- 17 Norte 0 910.9 1.6 57
2019-09-11 10:00:00 14 -- -- 9 Norte 0 910.3 1.2 70
2019-09-11 09:00:00 11 -- -- 10 Norte 0 909.5 0.9 83
2019-09-11 08:00:00 9.2 -- -- 10 Norte 0 909.3 0.7 85
2019-09-11 07:00:00 8.8 -- -- 10 Norte 0 909.1 0.7 83
2019-09-11 06:00:00 9.7 -- -- 21 Norte 0 908.6 0.5 79
2019-09-11 05:00:00 10.7 -- -- 20 Norte 0 908.6 0.8 80
2019-09-11 04:00:00 9.5 -- -- 23 Norte 0 908.4 0.2 80
2019-09-11 03:00:00 9.7 -- -- 25 Norte 0 908.1 0.9 79
2019-09-11 02:00:00 10.2 -- -- 24 Norte 0 907.8 1.1 78
2019-09-11 01:00:00 10.6 -- -- 28 Norte 0 908.2 2 79
2019-09-11 00:00:00 10.8 -- -- 29 Norte 0 907.2 1.7 76
2019-09-10 23:00:00 11.7 -- -- 32 Norte 0 906.7 1.7 72
2019-09-10 22:00:00 12.1 -- -- 33 Norte 0 906.2 1.3 65
2019-09-10 21:00:00 13.3 -- -- 70 Norte 0 905.5 1.1 60
2019-09-10 20:00:00 15 -- -- 41 Norte 0 905 0.7 52
2019-09-10 19:00:00 16.6 -- -- 38 Norte 0 904.9 0.2 50
2019-09-10 18:00:00 17.4 -- -- 41 Norte 0 904.4 0 44
2019-09-10 17:00:00 18.1 -- -- 46 Norte 0 904.3 -0.4 44
2019-09-10 16:00:00 16.4 -- -- 45 Norte 0 904.7 0.6 46
2019-09-10 15:00:00 16.3 -- -- 71 Norte 0 904.4 0.6 44
2019-09-10 14:00:00 15.4 -- -- 66 Norte 0 904.7 1.3 45
2019-09-10 13:00:00 15.9 -- -- 71 Norte 0 904.1 1.3 43
2019-09-10 12:00:00 14.3 -- -- 72 Norte 0 903.8 1.2 47
2019-09-10 11:00:00 12.6 -- -- 54 Norte 0 903.4 0.7 56
2019-09-10 10:00:00 11.2 -- -- 72 Norte 0 902.8 0.6 63
2019-09-10 09:00:00 9.7 -- -- 67 Norte 0 902.6 0.8 72
2019-09-10 08:00:00 8.3 -- -- 38 Norte 0 902.7 0.6 77
2019-09-10 07:00:00 8.9 -- -- 41 Norte 0 902.2 -0.2 76
2019-09-10 06:00:00 8.8 -- -- 35 Norte 0 901.8 -0.8 76
2019-09-10 05:00:00 8.9 -- -- 33 Norte 0 902.1 -0.6 72
2019-09-10 04:00:00 9.3 -- -- 26 Norte 0 902.4 -0.3 76
2019-09-10 03:00:00 9.7 -- -- 25 Norte 0 902.6 0.2 76
2019-09-10 02:00:00 11.7 -- -- 41 Norte 0 902.7 0.6 74
2019-09-10 01:00:00 12.4 -- -- 29 Norte 0 902.7 1.4 80
2019-09-10 00:00:00 13 -- -- 33 Norte 0 902.4 1.9 84
2019-09-09 23:00:00 14.6 -- -- 30 Norte 0 902.1 1.3 65
2019-09-09 22:00:00 14.8 -- -- 71 Norte 0 901.3 0.6 59
2019-09-09 21:00:00 15.7 -- -- 69 Norte 0 900.5 -0.1 54
2019-09-09 20:00:00 18.2 -- -- 40 Norte 0 900.8 0.1 44
2019-09-09 19:00:00 19 -- -- 71 Norte 0 900.7 -0.3 45
2019-09-09 18:00:00 20.9 -- -- 39 Norte 0 900.6 -0.5 33
2019-09-09 17:00:00 21.2 -- -- 35 Norte 0 900.7 -0.7 30
2019-09-09 16:00:00 21.9 -- -- 32 Norte 0 901 -0.8 22
2019-09-09 15:00:00 23 -- -- 31 Norte 0 901.1 -0.9 17
2019-09-09 14:00:00 23.9 -- -- 30 Norte 0 901.4 -0.7 16
2019-09-09 13:00:00 22.7 -- -- 31 Norte 0 901.8 -0.3 19
2019-09-09 12:00:00 21.1 -- -- 14 Norte 0 902 -0.4 42
2019-09-09 11:00:00 19.1 -- -- 9 Norte 0 902.1 -0.3 51
2019-09-09 10:00:00 14.2 -- -- 4 Norte 0 902.1 -0.3 77
2019-09-09 09:00:00 8.9 -- -- 7 Norte 0 902.4 -0.1 95
2019-09-09 08:00:00 7 -- -- 6 Norte 0 902.4 -0.8 94
2019-09-09 07:00:00 7.7 -- -- 7 Norte 0 902.4 -1.2 93
2019-09-09 06:00:00 7.5 -- -- 9 Norte 0 902.5 -1.8 91
2019-09-09 05:00:00 7.7 -- -- 5 Norte 0 903.2 -1.1 88
2019-09-09 04:00:00 8.7 -- -- 7 Norte 0 903.6 -0.6 83
2019-09-09 03:00:00 10 -- -- 6 Norte 0 904.3 0.2 77
2019-09-09 02:00:00 11.5 -- -- 5 Norte 0 904.3 0.2 69
2019-09-09 01:00:00 14 -- -- 21 Norte 0 904.2 0.4 62
2019-09-09 00:00:00 15.4 -- -- 14 Norte 0 904.1 1 57
2019-09-08 23:00:00 15 -- -- 11 Norte 0 904.1 1.3 48
2019-09-08 22:00:00 15.8 -- -- 11 Norte 0 903.8 1.1 42
2019-09-08 21:00:00 20.7 -- -- 15 Norte 0 903.1 0.3 34
2019-09-08 20:00:00 23.4 -- -- 22 Norte 0 902.8 -0.3 31
2019-09-08 19:00:00 25.1 -- -- 22 Norte 0 902.7 -0.9 30
2019-09-08 18:00:00 25.1 -- -- 25 Norte 0 902.8 -1.5 30
2019-09-08 17:00:00 25.4 -- -- 28 Norte 0 903.1 -1.5 30
2019-09-08 16:00:00 25.1 -- -- 23 Norte 0 903.6 -1.3 32
2019-09-08 15:00:00 24 -- -- 20 Norte 0 904.3 -1.1 33
2019-09-08 14:00:00 22.7 -- -- 18 Norte 0 904.6 -1 37
2019-09-08 13:00:00 21 -- -- 18 Norte 0 904.9 -0.5 43
2019-09-08 12:00:00 19.5 -- -- 18 Norte 0 905.4 0.1 48
2019-09-08 11:00:00 18.5 -- -- 18 Norte 0 905.6 0.3 50
2019-09-08 10:00:00 16.1 -- -- 10 Norte 0 905.4 0 57
2019-09-08 09:00:00 10.4 -- -- 7 Norte 0 905.3 0.1 85
2019-09-08 08:00:00 7.6 -- -- 13 Norte 0 905.3 0 90
2019-09-08 07:00:00 6.9 -- -- 9 Norte 0 905.4 -0.1 89
2019-09-08 06:00:00 8.4 -- -- 9 Norte 0 905.2 -0.8 88
2019-09-08 05:00:00 8.1 -- -- 10 Norte 0 905.3 -0.8 87
2019-09-08 04:00:00 9.1 -- -- 12 Norte 0 905.5 -0.6 81
2019-09-08 03:00:00 9.1 -- -- 8 Norte 0 906 -0.1 77
2019-09-08 02:00:00 10.2 -- -- 10 Norte 0 906.1 0 71
2019-09-08 01:00:00 11.1 -- -- 10 Norte 0 906.1 0.8 63
2019-09-08 00:00:00 14.6 -- -- 8 Norte 0 906.1 1.6 54
2019-09-07 23:00:00 15.4 -- -- 20 Norte 0 906.1 1.5 46
2019-09-07 22:00:00 17.9 -- -- 19 Norte 0 905.3 0.7 33
2019-09-07 21:00:00 19.3 -- -- 15 Norte 0 904.5 -0.4 23
2019-09-07 20:00:00 22.9 -- -- 21 Norte 0 904.6 -0.7 21
2019-09-07 19:00:00 24.3 -- -- 22 Norte 0 904.6 -1.3 20
2019-09-07 18:00:00 24.2 -- -- 23 Norte 0 904.9 -1.8 20
2019-09-07 17:00:00 24 -- -- 22 Norte 0 905.3 -1.7 20
2019-09-07 16:00:00 23.1 -- -- 27 Norte 0 905.9 -1.5 19
2019-09-07 15:00:00 22.4 -- -- 30 Norte 0 906.7 -1.1 19
2019-09-07 14:00:00 21.8 -- -- 24 Norte 0 907 -0.9 20
2019-09-07 13:00:00 20.2 -- -- 18 Norte 0 907.4 -0.6 24
2019-09-07 12:00:00 18.7 -- -- 15 Norte 0 907.8 -0.2 32
2019-09-07 11:00:00 15.8 -- -- 9 Norte 0 907.9 0.6 40
2019-09-07 10:00:00 12.7 -- -- 9 Norte 0 908 0.8 55
2019-09-07 09:00:00 8 -- -- 12 Norte 0 908 0.6 68
2019-09-07 08:00:00 5.6 -- -- 8 Norte 0 907.3 -0.4 65
2019-09-07 07:00:00 7.4 -- -- 11 Norte 0 907.2 -0.7 64
2019-09-07 06:00:00 4.6 -- -- 7 Norte 0 907.4 -0.4 76
2019-09-07 05:00:00 6.2 -- -- 9 Norte 0 907.7 -0.2 76
2019-09-07 04:00:00 5.4 -- -- 9 Norte 0 907.9 -0.2 77
2019-09-07 03:00:00 7.1 -- -- 6 Norte 0 907.8 -0.5 73
2019-09-07 02:00:00 7.4 -- -- 10 Norte 0 907.9 -0.1 73
2019-09-07 01:00:00 8.6 -- -- 9 Norte 0 908.1 0.6 68
2019-09-07 00:00:00 11.8 -- -- 15 Norte 0 908.3 1.8 57
2019-09-06 23:00:00 13.6 -- -- 15 Norte 0 908 1.9 57
2019-09-06 22:00:00 15.4 -- -- 21 Norte 0 907.5 1.5 51
2019-09-06 21:00:00 18.1 -- -- 21 Norte 0 906.5 0.3 40
2019-09-06 20:00:00 20.8 -- -- 21 Norte 0 906.1 -0.4 33
2019-09-06 19:00:00 22.1 -- -- 22 Norte 0 906 -1 30
2019-09-06 18:00:00 22.2 -- -- 19 Norte 0 906.2 -1.4 30
2019-09-06 17:00:00 22 -- -- 23 Norte 0 906.5 -1.6 28
2019-09-06 16:00:00 21.5 -- -- 24 Norte 0 907 -1.4 33
2019-09-06 15:00:00 20.3 -- -- 22 Norte 0 907.6 -0.9 37
2019-09-06 14:00:00 18.9 -- -- 25 Norte 0 908.1 -0.4 41
2019-09-06 13:00:00 17.8 -- -- 30 Norte 0 908.4 0.3 41
2019-09-06 12:00:00 16.4 -- -- 24 Norte 0 908.5 0.6 48
2019-09-06 11:00:00 14.8 -- -- 15 Norte 0 908.5 0.6 55
2019-09-06 10:00:00 13.1 -- -- 10 Norte 0 908.1 0.6 66
2019-09-06 09:00:00 9.3 -- -- 10 Norte 0 907.9 0.1 90
2019-09-06 08:00:00 5.7 -- -- 13 Norte 0 907.9 -0.2 95
2019-09-06 07:00:00 5.9 -- -- 12 Norte 0 907.5 -0.8 95
2019-09-06 06:00:00 6.4 -- -- 10 Norte 0 907.8 -0.7 95
2019-09-06 05:00:00 6.2 -- -- 10 Norte 0 908.1 -0.9 94
2019-09-06 04:00:00 7 -- -- 10 Norte 0 908.3 -1 92
2019-09-06 03:00:00 7.6 -- -- 10 Norte 0 908.5 -0.9 86
2019-09-06 02:00:00 8.7 -- -- 7 Norte 0 909 -0.1 81
2019-09-06 01:00:00 8.9 -- -- 6 Norte 0 909.3 0.5 74
2019-09-06 00:00:00 9.8 -- -- 6 Norte 0 909.4 1.4 64
2019-09-05 23:00:00 12.5 -- -- 9 Norte 0 909.1 1.8 53
2019-09-05 22:00:00 15.2 -- -- 18 Norte 0 908.8 1.7 47
2019-09-05 21:00:00 17.2 -- -- 26 Norte 0 908 0.8 42
2019-09-05 20:00:00 21.1 -- -- 48 Norte 0 907.3 -0.5 33
2019-09-05 19:00:00 22.7 -- -- 24 Norte 0 907.1 -1 30
2019-09-05 18:00:00 22.8 -- -- 23 Norte 0 907.2 -1.6 29
2019-09-05 17:00:00 22.8 -- -- 24 Norte 0 907.8 -1.5 28
2019-09-05 16:00:00 22.7 -- -- 27 Norte 0 908.1 -1.6 28
2019-09-05 15:00:00 21.6 -- -- 26 Norte 0 908.8 -0.8 31
2019-09-05 14:00:00 20.4 -- -- 25 Norte 0 909.3 -0.3 35
2019-09-05 13:00:00 19.5 -- -- 25 Norte 0 909.7 0.3 37
2019-09-05 12:00:00 18 -- -- 26 Norte 0 909.6 0.6 42
2019-09-05 11:00:00 15.9 -- -- 24 Norte 0 909.6 0.9 52
2019-09-05 10:00:00 14.2 -- -- 17 Norte 0 909.4 1.2 64
2019-09-05 09:00:00 10.4 -- -- 8 Norte 0 909 1.1 88
2019-09-05 08:00:00 7 -- -- 8 Norte 0 908.7 1.5 93
2019-09-05 07:00:00 7 -- -- 9 Norte 0 908.2 0.4 91
2019-09-05 06:00:00 8.5 -- -- 5 Norte 0 907.9 0.2 89
2019-09-05 05:00:00 8.6 -- -- 9 Norte 0 907.2 -0.7 86
2019-09-05 04:00:00 10.6 -- -- 9 Norte 0 907.8 0 83
2019-09-05 03:00:00 11.3 -- -- 12 Norte 0 907.7 0 80
2019-09-05 02:00:00 11.9 -- -- 10 Norte 0 907.9 0.6 76
2019-09-05 01:00:00 13.1 -- -- 5 Norte 0 907.8 1.1 65
2019-09-05 00:00:00 15.6 -- -- 8 Norte 0 907.7 1.8 54
2019-09-04 23:00:00 17.5 -- -- 8 Norte 0 907.3 2 49
2019-09-04 22:00:00 19.5 -- -- 21 Norte 0 906.7 1.8 44
2019-09-04 21:00:00 22.8 -- -- 25 Norte 0 905.9 1.5 37
2019-09-04 20:00:00 26.5 -- -- 28 Norte 0 905.3 0.9 31
2019-09-04 19:00:00 28.3 -- -- 30 Norte 0 904.9 0.2 30
2019-09-04 18:00:00 29 -- -- 26 Norte 0 904.4 -0.9 27
2019-09-04 17:00:00 30.3 -- -- 23 Norte 0 904.4 -1.3 26
2019-09-04 16:00:00 30.3 -- -- 26 Norte 0 904.7 -1.3 23
2019-09-04 15:00:00 30 -- -- 28 Norte 0 905.3 -1.1 24
2019-09-04 14:00:00 28.8 -- -- 21 Norte 0 905.7 -0.8 29
2019-09-04 13:00:00 28 -- -- 23 Norte 0 906 -0.5 33
2019-09-04 12:00:00 27.3 -- -- 18 Norte 0 906.4 0.1 37
2019-09-04 11:00:00 24.7 -- -- 11 Norte 0 906.5 0.2 37
2019-09-04 10:00:00 21.8 -- -- 7 Norte 0 906.5 0.3 43
2019-09-04 09:00:00 16.6 -- -- 9 Norte 0 906.3 0 57
2019-09-04 08:00:00 11.4 -- -- 10 Norte 0 906.3 -0.1 68
2019-09-04 07:00:00 11 -- -- 5 Norte 0 906.2 -0.6 67
2019-09-04 06:00:00 11.6 -- -- 7 Norte 0 906.3 -0.9 65
2019-09-04 05:00:00 11.7 -- -- 6 Norte 0 906.4 -0.8 65
2019-09-04 04:00:00 12.5 -- -- 10 Norte 0 906.8 -0.1 64
2019-09-04 03:00:00 14.6 -- -- 7 Norte 0 907.2 -0.1 63
2019-09-04 02:00:00 17.5 -- -- 10 Norte 0 907.2 0 62
2019-09-04 01:00:00 18.6 -- -- 10 Norte 0 906.9 -0.1 60
2019-09-04 00:00:00 18.9 -- -- 11 Norte 0 907.3 0.9 59
2019-09-03 23:00:00 18.7 -- -- 11 Norte 0 907.2 1.1 45
2019-09-03 22:00:00 19.8 -- -- 11 Norte 0 907 1 37
2019-09-03 21:00:00 24.9 -- -- 15 Norte 0 906.4 0.4 30
2019-09-03 20:00:00 27.5 -- -- 21 Norte 0 906.1 -0.2 27
2019-09-03 19:00:00 28.6 -- -- 25 Norte 0 906 -0.9 26
2019-09-03 18:00:00 29.6 -- -- 38 Norte 0 906 -1.4 25
2019-09-03 17:00:00 29.1 -- -- 24 Norte 0 906.3 -1.6 26
2019-09-03 16:00:00 28.8 -- -- 27 Norte 0 906.9 -1.7 26
2019-09-03 15:00:00 27.7 -- -- 23 Norte 0 907.4 -1.5 27
2019-09-03 14:00:00 25.6 -- -- 21 Norte 0 907.9 -1.2 29
2019-09-03 13:00:00 24 -- -- 17 Norte 0 908.6 -0.1 30
2019-09-03 12:00:00 21.8 -- -- 15 Norte 0 908.9 0.4 33
2019-09-03 11:00:00 20.3 -- -- 11 Norte 0 909.1 0.6 31
2019-09-03 10:00:00 18.1 -- -- 7 Norte 0 908.7 0.4 32
2019-09-03 09:00:00 13.4 -- -- 12 Norte 0 908.5 0.2 44
2019-09-03 08:00:00 8.9 -- -- 12 Norte 0 908.5 0.2 51
2019-09-03 07:00:00 9.5 -- -- 13 Norte 0 908.3 -0.3 51
2019-09-03 06:00:00 9.8 -- -- 13 Norte 0 908.3 -0.5 51
2019-09-03 05:00:00 11.2 -- -- 15 Norte 0 908.3 -0.3 55
2019-09-03 04:00:00 11.9 -- -- 14 Norte 0 908.6 0.1 63
2019-09-03 03:00:00 11.6 -- -- 11 Norte 0 908.8 0.4 75
2019-09-03 02:00:00 10.7 -- -- 8 Norte 0 908.6 0.6 71
2019-09-03 01:00:00 13.1 -- -- 6 Norte 0 908.5 1.8 62
2019-09-03 00:00:00 15.5 -- -- 9 Norte 0 908.4 2.4 54
2019-09-02 23:00:00 16.1 -- -- 13 Norte 0 908 2.4 45
2019-09-02 22:00:00 18.8 -- -- 15 Norte 0 906.7 1.2 39
2019-09-02 21:00:00 22 -- -- 14 Norte 0 906 0.5 33
2019-09-02 20:00:00 24.5 -- -- 20 Norte 0 905.6 -0.2 33
2019-09-02 19:00:00 25.4 -- -- 27 Norte 0 905.5 -0.7 33
2019-09-02 18:00:00 25.2 -- -- 22 Norte 0 905.5 -1.1 34
2019-09-02 17:00:00 25.4 -- -- 22 Norte 0 905.8 -1.1 36
2019-09-02 16:00:00 24.1 -- -- 23 Norte 0 906.2 -1.1 38
2019-09-02 15:00:00 23 -- -- 26 Norte 0 906.6 -0.8 40
2019-09-02 14:00:00 22.2 -- -- 21 Norte 0 906.9 -0.5 43
2019-09-02 13:00:00 20.4 -- -- 21 Norte 0 907.3 0.1 48
2019-09-02 12:00:00 19.2 -- -- 15 Norte 0 907.4 0.6 52
2019-09-02 11:00:00 16.5 -- -- 13 Norte 0 907.4 1.3 63
2019-09-02 10:00:00 14.4 -- -- 13 Norte 0 907.2 1.7 72
2019-09-02 09:00:00 12.2 -- -- 11 Norte 0 906.8 1.2 83
2019-09-02 08:00:00 9.1 -- -- 10 Norte 0 906.1 0.3 90
2019-09-02 07:00:00 9.7 -- -- 10 Norte 0 905.5 -0.2 90
2019-09-02 06:00:00 10.4 -- -- 14 Norte 0 905.6 -0.4 90
2019-09-02 05:00:00 9.4 -- -- 10 Norte 0 905.8 -0.3 91
2019-09-02 04:00:00 9.1 -- -- 6 Norte 0 905.7 0 87
2019-09-02 03:00:00 10 -- -- 7 Norte 0 906 0.9 84
2019-09-02 02:00:00 10.8 -- -- 5 Norte 0 906.1 1.2 79
2019-09-02 01:00:00 12.6 -- -- 6 Norte 0 905.7 1.7 72
2019-09-02 00:00:00 14.3 -- -- 10 Norte 0 905.1 2.2 64
2019-09-01 23:00:00 15.9 -- -- 12 Norte 0 904.9 2.4 60
2019-09-01 22:00:00 17.7 -- -- 17 Norte 0 904 2 53
2019-09-01 21:00:00 19.7 -- -- 25 Norte 0 902.9 1.1 48
2019-09-01 20:00:00 22 -- -- 31 Norte 0 902.5 0.5 41
2019-09-01 19:00:00 23.7 -- -- 31 Norte 0 902 -0.1 39
2019-09-01 18:00:00 24.9 -- -- 26 Norte 0 901.8 -0.6 35
2019-09-01 17:00:00 25.1 -- -- 26 Norte 0 902 -0.9 36
2019-09-01 16:00:00 25.8 -- -- 20 Norte 0 902.1 -1.3 37
2019-09-01 15:00:00 24.9 -- -- 22 Norte 0 902.4 -0.9 38
2019-09-01 14:00:00 25.2 -- -- 21 Norte 0 902.9 -0.6 41
2019-09-01 13:00:00 23.3 -- -- 22 Norte 0 903.4 0.4 51
2019-09-01 12:00:00 22.1 -- -- 14 Norte 0 903.3 0.2 58
2019-09-01 11:00:00 20 -- -- 10 Norte 0 903.5 0.7 67
2019-09-01 10:00:00 18.2 -- -- 10 Norte 0 903 0.4 77
2019-09-01 09:00:00 14.6 -- -- 7 Norte 0 903.1 0.6 93
2019-09-01 08:00:00 13.1 -- -- 9 Norte 0 902.8 0.1 94
2019-09-01 07:00:00 13.4 -- -- 10 Norte 0 902.6 -0.6 94
2019-09-01 06:00:00 13.1 -- -- 9 Norte 0 902.5 -0.8 93
2019-09-01 05:00:00 13.6 -- -- 11 Norte 0 902.7 -0.7 90
2019-09-01 04:00:00 13.7 -- -- 12 Norte 0 903.2 0.2 86
2019-09-01 03:00:00 13.6 -- -- 10 Norte 0 903.3 0.6 80
2019-09-01 02:00:00 16.7 -- -- 12 Norte 0 903.4 0.7 69
2019-09-01 01:00:00 17.4 -- -- 15 Norte 0 903 0.5 62
2019-09-01 00:00:00 20.1 -- -- 31 Norte 0 902.7 0.7 55
2019-08-31 23:00:00 21.3 -- -- 36 Norte 0 902.7 1.2 51
2019-08-31 22:00:00 21.7 -- -- 28 Norte 0 902.5 1.3 44
2019-08-31 21:00:00 24.4 -- -- 30 Norte 0 902 1 34
2019-08-31 20:00:00 27.5 -- -- 34 Norte 0 901.5 0.3 31
2019-08-31 19:00:00 29.1 -- -- 35 Norte 0 901.2 -0.5 29
2019-08-31 18:00:00 29.4 -- -- 33 Norte 0 901 -1.2 28
2019-08-31 17:00:00 30.9 -- -- 60 Norte 0 901.2 -1.5 26
2019-08-31 16:00:00 32.3 -- -- 31 Norte 0 901.7 -1.3 23
2019-08-31 15:00:00 31.6 -- -- 34 Norte 0 902.2 -1.2 26
2019-08-31 14:00:00 30.7 -- -- 34 Norte 0 902.7 -0.9 26
2019-08-31 13:00:00 30 -- -- 27 Norte 0 903 -0.5 30
2019-08-31 12:00:00 27.2 -- -- 20 Norte 0 903.4 -0.1 40
2019-08-31 11:00:00 25.4 -- -- 13 Norte 0 903.6 0.1 44
2019-08-31 10:00:00 22.9 -- -- 8 Norte 0 903.5 0.1 51
2019-08-31 09:00:00 17.8 -- -- 7 Norte 0 903.5 0.5 66
2019-08-31 08:00:00 14.1 -- -- 12 Norte 0 903.5 0.4 66
2019-08-31 07:00:00 14.7 -- -- 6 Norte 0 903.4 0.2 60
2019-08-31 06:00:00 16.7 -- -- 14 Norte 0 903 -1.1 51
2019-08-31 05:00:00 19.6 -- -- 17 Norte 0 903.1 -1.3 47
2019-08-31 04:00:00 19.4 -- -- 16 Norte 0 903.2 -1.3 49
2019-08-31 03:00:00 18.8 -- -- 12 Norte 0 904.1 -0.7 51
2019-08-31 02:00:00 19.1 -- -- 10 Norte 0 904.4 -0.6 52
2019-08-31 01:00:00 20.7 -- -- 19 Norte 0 904.5 0.1 48
2019-08-31 00:00:00 21.1 -- -- 15 Norte 0 904.8 0.8 47
2019-08-30 23:00:00 22.3 -- -- 18 Norte 0 905 1.5 40
2019-08-30 22:00:00 24 -- -- 17 Norte 0 904.4 0.8 36
2019-08-30 21:00:00 27.6 -- -- 20 Norte 0 904 0.1 28
2019-08-30 20:00:00 30.6 -- -- 23 Norte 0 903.5 -0.6 19
2019-08-30 19:00:00 31.5 -- -- 23 Norte 0 903.6 -0.9 19
2019-08-30 18:00:00 32.1 -- -- 25 Norte 0 903.9 -1.2 19
2019-08-30 17:00:00 32 -- -- 28 Norte 0 904.1 -1.7 20
2019-08-30 16:00:00 31 -- -- 38 Norte 0 904.5 -1.9 22
2019-08-30 15:00:00 31.3 -- -- 34 Norte 0 905.1 -1.6 22
2019-08-30 14:00:00 30.5 -- -- 35 Norte 0 905.8 -1.1 25
2019-08-30 13:00:00 27.7 -- -- 23 Norte 0 906.4 -0.4 41
2019-08-30 12:00:00 25.7 -- -- 16 Norte 0 906.7 -0.1 50
2019-08-30 11:00:00 23.1 -- -- 13 Norte 0 906.9 0.1 61
2019-08-30 10:00:00 20.3 -- -- 5 Norte 0 906.8 0.3 76
2019-08-30 09:00:00 16.7 -- -- 7 Norte 0 906.8 0.5 91
2019-08-30 08:00:00 13.2 -- -- 7 Norte 0 906.8 0.4 93
2019-08-30 07:00:00 14.4 -- -- 5 Norte 0 906.5 -0.1 91
2019-08-30 06:00:00 14.2 -- -- 10 Norte 0 906.3 -0.4 84
2019-08-30 05:00:00 15.4 -- -- 12 Norte 0 906.4 -0.1 82
2019-08-30 04:00:00 15 -- -- 11 Norte 0 906.6 0.5 77
2019-08-30 03:00:00 17.2 -- -- 19 Norte 0 906.7 0.8 67
2019-08-30 02:00:00 19.1 -- -- 10 Norte 0 906.5 0.7 62
2019-08-30 01:00:00 19.3 -- -- 10 Norte 0 906.1 0.9 60
2019-08-30 00:00:00 21.4 -- -- 13 Norte 0 905.9 1 55
2019-08-29 23:00:00 22.4 -- -- 26 Norte 0 905.8 1.4 52
2019-08-29 22:00:00 24 -- -- 28 Norte 0 905.2 1.2 48
2019-08-29 21:00:00 25.7 -- -- 24 Norte 0 904.9 0.9 39
2019-08-29 20:00:00 29.3 -- -- 21 Norte 0 904.4 0.3 28
2019-08-29 19:00:00 31.1 -- -- 31 Norte 0 904 -0.5 25
2019-08-29 18:00:00 31.3 -- -- 24 Norte 0 904 -0.8 23
2019-08-29 17:00:00 31.1 -- -- 25 Norte 0 904.1 -1 23
2019-08-29 16:00:00 30.6 -- -- 30 Norte 0 904.5 -1.1 23
2019-08-29 15:00:00 29.6 -- -- 31 Norte 0 904.8 -1 27
2019-08-29 14:00:00 28.3 -- -- 30 Norte 0 905.1 -0.4 35
2019-08-29 13:00:00 26.6 -- -- 22 Norte 0 905.6 0 42
2019-08-29 12:00:00 25 -- -- 20 Norte 0 905.8 0.4 48
2019-08-29 11:00:00 22.7 -- -- 13 Norte 0 905.5 0.4 62
2019-08-29 10:00:00 20.4 -- -- 8 Norte 0 905.6 0.8 76
2019-08-29 09:00:00 16.3 -- -- 7 Norte 0 905.4 0.7 94
2019-08-29 08:00:00 13 -- -- 7 Norte 0 905.1 0.3 94
2019-08-29 07:00:00 14.1 -- -- 9 Norte 0 904.8 0.1 91
2019-08-29 06:00:00 14.7 -- -- 11 Norte 0 904.7 0.2 88
2019-08-29 05:00:00 14.5 -- -- 15 Norte 0 904.8 0.5 83
2019-08-29 04:00:00 16 -- -- 10 Norte 0 904.7 0.5 76
2019-08-29 03:00:00 16.1 -- -- 9 Norte 0 904.5 0.4 74
2019-08-29 02:00:00 17.1 -- -- 8 Norte 0 904.3 0.6 71
2019-08-29 01:00:00 18 -- -- 9 Norte 0 904.2 0.8 64
2019-08-29 00:00:00 20.2 -- -- 20 Norte 0 904.1 1.3 57
2019-08-28 23:00:00 21.8 -- -- 26 Norte 0 903.7 1.2 51
2019-08-28 22:00:00 22.3 -- -- 25 Norte 0 903.4 1 48
2019-08-28 21:00:00 23.7 -- -- 24 Norte 0 902.8 0.4 43
2019-08-28 20:00:00 26.9 -- -- 19 Norte 0 902.5 0.1 37
2019-08-28 19:00:00 28.7 -- -- 16 Norte 0 902.4 -0.3 35
2019-08-28 18:00:00 27.7 -- -- 28 Norte 0 902.4 -0.4 36
2019-08-28 17:00:00 29.1 -- -- 23 Norte 0 902.4 -0.7 34
2019-08-28 16:00:00 29.2 -- -- 22 Norte 0 902.7 -1.1 33
2019-08-28 15:00:00 28.1 -- -- 23 Norte 0 902.8 -1.3 34
2019-08-28 14:00:00 27.7 -- -- 19 Norte 0 903.1 -1 37
2019-08-28 13:00:00 26.3 -- -- 23 Norte 0 903.8 -0.3 42
2019-08-28 12:00:00 23.9 -- -- 16 Norte 0 904.1 0.2 49
2019-08-28 11:00:00 21.9 -- -- 12 Norte 0 904.1 0.2 58
2019-08-28 10:00:00 20.4 -- -- 7 Norte 0 904.1 0.2 69
2019-08-28 09:00:00 16.2 -- -- 4 Norte 0 903.9 0.2 94
2019-08-28 08:00:00 12.2 -- -- 6 Norte 0 903.9 0.2 94
2019-08-28 07:00:00 12.8 -- -- 9 Norte 0 903.9 0.2 92
2019-08-28 06:00:00 14.1 -- -- 11 Norte 0 903.7 0.3 90
2019-08-28 05:00:00 14.4 -- -- 8 Norte 0 903.7 0.1 88
2019-08-28 04:00:00 15.8 -- -- 14 Norte 0 903.7 -0.1 80
2019-08-28 03:00:00 15.8 -- -- 9 Norte 0 903.4 -0.2 74
2019-08-28 02:00:00 16.6 -- -- 10 Norte 0 903.6 0.3 71
2019-08-28 01:00:00 17.8 -- -- 15 Norte 0 903.8 1 67
2019-08-28 00:00:00 18.7 -- -- 15 Norte 0 903.6 1.6 66
2019-08-27 23:00:00 20 -- -- 19 Norte 0 903.3 1.5 61
2019-08-27 22:00:00 22.4 -- -- 22 Norte 0 902.8 1.2 44
2019-08-27 21:00:00 24.6 -- -- 19 Norte 0 902 0.6 34
2019-08-27 20:00:00 26.1 -- -- 23 Norte 0 901.8 0.4 33
2019-08-27 19:00:00 26 -- -- 30 Norte 0 901.6 0 33
2019-08-27 18:00:00 26.8 -- -- 25 Norte 0 901.4 -0.5 32
2019-08-27 17:00:00 27.6 -- -- 19 Norte 0 901.4 -0.9 27
2019-08-27 16:00:00 27.7 -- -- 15 Norte 0 901.6 -1.3 29
2019-08-27 15:00:00 26.2 -- -- 21 Norte 0 901.9 -1.3 33
2019-08-27 14:00:00 25.8 -- -- 16 Norte 0 902.3 -0.8 35
2019-08-27 13:00:00 24.1 -- -- 14 Norte 0 902.9 0.2 39
2019-08-27 12:00:00 22.7 -- -- 15 Norte 0 903.2 0.8 43
2019-08-27 11:00:00 20.9 -- -- 13 Norte 0 903.1 0.8 49
2019-08-27 10:00:00 18.9 -- -- 9 Norte 0 902.7 0.9 59
2019-08-27 09:00:00 14.8 -- -- 7 Norte 0 902.4 0.5 89
2019-08-27 08:00:00 11.5 -- -- 11 Norte 0 902.3 0.5 93
2019-08-27 07:00:00 11.8 -- -- 12 Norte 0 901.8 0.2 92
2019-08-27 06:00:00 11.7 -- -- 10 Norte 0 901.9 -0.2 89
2019-08-27 05:00:00 13.7 -- -- 12 Norte 0 901.8 -0.3 86
2019-08-27 04:00:00 14.4 -- -- 12 Norte 0 901.6 -0.5 82
2019-08-27 03:00:00 14.5 -- -- 9 Norte 0 902.1 0.7 76
2019-08-27 02:00:00 14.7 -- -- 11 Norte 0 902.1 0.6 69
2019-08-27 01:00:00 16.5 -- -- 18 Norte 0 902.1 0.7 63
2019-08-27 00:00:00 15 -- -- 9 Norte 0 901.4 0.8 59
2019-08-26 23:00:00 16.4 -- -- 9 Norte 0 901.5 1.6 51
2019-08-26 22:00:00 19 -- -- 9 Norte 0 901.4 1.1 41
2019-08-26 21:00:00 22 -- -- 14 Norte 0 900.6 -0.1 34
2019-08-26 20:00:00 24.1 -- -- 20 Norte 0 899.9 -0.9 30
2019-08-26 19:00:00 24.9 -- -- 31 Norte 0 900.3 -0.9 30
2019-08-26 18:00:00 24.8 -- -- 27 Norte 0 900.7 -1.1 32
2019-08-26 17:00:00 24 -- -- 32 Norte 0 900.8 -1.1 35
2019-08-26 16:00:00 23.1 -- -- 30 Norte 0 901.2 -1.3 39
2019-08-26 15:00:00 22.3 -- -- 34 Norte 0 901.8 -0.8 41
2019-08-26 14:00:00 22.4 -- -- 35 Norte 0 901.9 -0.4 40
2019-08-26 13:00:00 22.2 -- -- 27 Norte 0 902.5 0.5 46
2019-08-26 12:00:00 19.6 -- -- 15 Norte 0 902.6 -0.3 64
2019-08-26 11:00:00 17.8 -- -- 20 Norte 0 902.3 0.6 81
2019-08-26 10:00:00 15.4 -- -- 15 Norte 0 902 1.1 97
2019-08-26 09:00:00 14.8 -- -- 18 Norte 0 902.9 1.5 96
2019-08-26 08:00:00 14.9 -- -- 12 Norte 0 901.7 -1 95
2019-08-26 07:00:00 14.9 -- -- 14 Norte 0 900.9 -2.6 95
2019-08-26 06:00:00 15.2 -- -- 13 Norte 0 901.4 -2 93
2019-08-26 05:00:00 15.9 -- -- 9 Norte 0 902.7 -0.4 88
2019-08-26 04:00:00 16 -- -- 10 Norte 0 903.5 0.8 86
2019-08-26 03:00:00 16.4 -- -- 9 Norte 0 903.4 -0.7 85
2019-08-26 02:00:00 16.7 -- -- 15 Norte 0 903.1 -0.9 79
2019-08-26 01:00:00 17.1 -- -- 18 Norte 0 902.7 -0.9 77
2019-08-26 00:00:00 17.1 -- -- 14 Norte 0 904.1 1 79
2019-08-25 23:00:00 16.7 -- -- 15 Norte 0 904 0.9 86
2019-08-25 22:00:00 16.9 -- -- 24 Norte 0.1 903.6 1.5 83
2019-08-25 21:00:00 17.5 -- -- 24 Norte 0.5 903.1 0.9 77
2019-08-25 20:00:00 19.9 -- -- 34 Norte 0 903.1 0.2 60
2019-08-25 19:00:00 20.4 -- -- 41 Norte 0 902.1 -0.2 58
2019-08-25 18:00:00 20.6 -- -- 42 Norte 0 902.2 -0.4 57
2019-08-25 17:00:00 21 -- -- 32 Norte 0.1 902.9 -0.3 59
2019-08-25 16:00:00 25.7 -- -- 35 Norte 0 902.3 -0.4 43
2019-08-25 15:00:00 24.8 -- -- 42 Norte 0 902.6 -0.3 43
2019-08-25 14:00:00 22.9 -- -- 45 Norte 0 903.2 0.4 47
2019-08-25 13:00:00 26.2 -- -- 19 Norte 0 902.7 0 40
2019-08-25 12:00:00 25.2 -- -- 18 Norte 0 902.9 0.2 42
2019-08-25 11:00:00 23.5 -- -- 16 Norte 0 902.8 0.5 46
2019-08-25 10:00:00 22.9 -- -- 12 Norte 0 902.7 0.1 49
2019-08-25 09:00:00 20.4 -- -- 10 Norte 0 902.7 -0.1 62
2019-08-25 08:00:00 18.8 -- -- 7 Norte 0 902.3 -0.6 66
2019-08-25 07:00:00 17.8 -- -- 11 Norte 0 902.6 -0.2 66
2019-08-25 06:00:00 18.5 -- -- 11 Norte 0 902.8 0.1 63
2019-08-25 05:00:00 18.9 -- -- 12 Norte 0 902.9 -0.2 58
2019-08-25 04:00:00 20.2 -- -- 6 Norte 0 902.8 -0.4 52
2019-08-25 03:00:00 21.4 -- -- 10 Norte 0 902.7 -0.7 49
2019-08-25 02:00:00 21.7 -- -- 9 Norte 0 903.1 -0.6 49
2019-08-25 01:00:00 21.6 -- -- 15 Norte 0 903.2 -0.3 48
2019-08-25 00:00:00 23.2 -- -- 28 Norte 0 903.4 0.3 47
2019-08-24 23:00:00 24.4 -- -- 28 Norte 0 903.7 0.7 44
2019-08-24 22:00:00 24.5 -- -- 13 Norte 0 903.5 0.3 40
2019-08-24 21:00:00 26.4 -- -- 26 Norte 0 903.1 -0.2 34
2019-08-24 20:00:00 29 -- -- 27 Norte 0 903 -0.3 31
2019-08-24 19:00:00 29.7 -- -- 35 Norte 0 903.2 -0.4 30
2019-08-24 18:00:00 29.6 -- -- 35 Norte 0 903.3 -0.7 30
2019-08-24 17:00:00 31.3 -- -- 33 Norte 0 903.3 -0.8 28
2019-08-24 16:00:00 30.3 -- -- 27 Norte 0 903.6 -1 28
2019-08-24 15:00:00 31.4 -- -- 33 Norte 0 904 -1.1 28
2019-08-24 14:00:00 30.9 -- -- 26 Norte 0 904.1 -1.1 29
2019-08-24 13:00:00 29.9 -- -- 16 Norte 0 904.6 -0.6 30
2019-08-24 12:00:00 27.8 -- -- 13 Norte 0 905.1 0.1 32
2019-08-24 11:00:00 25.9 -- -- 14 Norte 0 905.2 0.3 36
2019-08-24 10:00:00 24.4 -- -- 10 Norte 0 905.2 0.5 38
2019-08-24 09:00:00 19.4 -- -- 9 Norte 0 905 0 56
2019-08-24 08:00:00 15 -- -- 10 Norte 0 904.9 -0.3 62
2019-08-24 07:00:00 15 -- -- 11 Norte 0 904.7 -0.5 62
2019-08-24 06:00:00 16.4 -- -- 12 Norte 0 905 -0.3 62
2019-08-24 05:00:00 17.6 -- -- 14 Norte 0 905.2 -0.2 62
2019-08-24 04:00:00 16.7 -- -- 29 Norte 0 905.2 0.2 62
2019-08-24 03:00:00 17.7 -- -- 7 Norte 0 905.3 0.4 58
2019-08-24 02:00:00 20.8 -- -- 14 Norte 0 905.4 0.8 48
2019-08-24 01:00:00 22.2 -- -- 27 Norte 0 905 0.7 44
2019-08-24 00:00:00 22.2 -- -- 21 Norte 0 904.9 0.9 40
2019-08-23 23:00:00 21.7 -- -- 16 Norte 0 904.6 0.9 35
2019-08-23 22:00:00 23.4 -- -- 9 Norte 0 904.3 0.5 29
2019-08-23 21:00:00 27.9 -- -- 14 Norte 0 904 0.1 25
2019-08-23 20:00:00 30.4 -- -- 12 Norte 0 903.7 0.5 23
2019-08-23 19:00:00 30 -- -- 18 Norte 0 903.8 -0.8 23
2019-08-23 18:00:00 30.6 -- -- 31 Norte 0 903.9 -1.1 22
2019-08-23 17:00:00 31.6 -- -- 40 Norte 0 903.2 -2.3 21
2019-08-23 16:00:00 30.5 -- -- 26 Norte 0 904.6 -1.3 21
2019-08-23 15:00:00 30.8 -- -- 37 Norte 0 905 -1.1 21
2019-08-23 14:00:00 29.6 -- -- 28 Norte 0 905.5 -1 21
2019-08-23 13:00:00 28.9 -- -- 19 Norte 0 905.9 -0.5 21
2019-08-23 12:00:00 27.4 -- -- 14 Norte 0 906.1 -0.2 24
2019-08-23 11:00:00 25.4 -- -- 10 Norte 0 906.5 0.2 27
2019-08-23 10:00:00 22.1 -- -- 4 Norte 0 906.4 0.4 33
2019-08-23 09:00:00 15.7 -- -- 5 Norte 0 906.3 0.1 50
2019-08-23 08:00:00 11 -- -- 10 Norte 0 906.3 -0.1 56
2019-08-23 07:00:00 11.2 -- -- 12 Norte 0 906 -0.6 56
2019-08-23 06:00:00 10.7 -- -- 9 Norte 0 906.2 -0.5 55
2019-08-23 05:00:00 11.1 -- -- 5 Norte 0 906.4 -0.3 52
2019-08-23 04:00:00 11.7 -- -- 10 Norte 0 906.6 0.3 46
2019-08-23 03:00:00 13.2 -- -- 12 Norte 0 906.7 0.2 41
2019-08-23 02:00:00 13.9 -- -- 17 Norte 0 906.7 0.3 36
2019-08-23 01:00:00 15.5 -- -- 10 Norte 0 906.3 0.2 32
2019-08-23 00:00:00 16.1 -- -- 8 Norte 0 906.5 0.6 30
2019-08-22 23:00:00 18.9 -- -- 12 Norte 0 906.4 0.6 28
2019-08-22 22:00:00 19.3 -- -- 12 Norte 0 906.1 0.4 26
2019-08-22 21:00:00 25.4 -- -- 20 Norte 0 905.9 0 19
2019-08-22 20:00:00 27.8 -- -- 24 Norte 0 905.8 -0.3 18
2019-08-22 19:00:00 28.6 -- -- 27 Norte 0 905.7 -0.9 21
2019-08-22 18:00:00 28.8 -- -- 22 Norte 0 905.9 -1.1 23
2019-08-22 17:00:00 29.2 -- -- 22 Norte 0 906.1 -1.6 23
2019-08-22 16:00:00 27.8 -- -- 21 Norte 0 906.6 -1.4 25
2019-08-22 15:00:00 27.7 -- -- 21 Norte 0 907 -1.3 26
2019-08-22 14:00:00 26.1 -- -- 19 Norte 0 907.7 -0.7 27
2019-08-22 13:00:00 25 -- -- 18 Norte 0 908 -0.5 26
2019-08-22 12:00:00 22.9 -- -- 17 Norte 0 908.3 0 31
2019-08-22 11:00:00 20.9 -- -- 10 Norte 0 908.4 0.4 36
2019-08-22 10:00:00 18.8 -- -- 8 Norte 0 908.5 0.9 47
2019-08-22 09:00:00 15.6 -- -- 5 Norte 0 908.3 0.5 78
2019-08-22 08:00:00 9.9 -- -- 5 Norte 0 908 -0.1 92
2019-08-22 07:00:00 10.4 -- -- 10 Norte 0 907.6 -0.7 90
2019-08-22 06:00:00 10.6 -- -- 10 Norte 0 907.8 -0.2 88
2019-08-22 05:00:00 11.2 -- -- 9 Norte 0 908.1 -0.1 84
2019-08-22 04:00:00 12.1 -- -- 7 Norte 0 908.3 0.4 79
2019-08-22 03:00:00 14.1 -- -- 6 Norte 0 908 0.6 76
2019-08-22 02:00:00 15.6 -- -- 11 Norte 0 908.2 1.7 67
2019-08-22 01:00:00 16.1 -- -- 9 Norte 0 907.9 2.3 60
2019-08-22 00:00:00 19.8 -- -- 22 Norte 0 907.4 2.6 47
2019-08-21 23:00:00 20.6 -- -- 14 Norte 0 906.5 2.1 37
2019-08-21 22:00:00 21.3 -- -- 11 Norte 0 905.6 1.4 26
2019-08-21 21:00:00 26.1 -- -- 18 Norte 0 904.8 0.6 22
2019-08-21 20:00:00 27.4 -- -- 23 Norte 0 904.4 -0.1 23
2019-08-21 19:00:00 28.6 -- -- 24 Norte 0 904.2 -0.7 24
2019-08-21 18:00:00 28.7 -- -- 19 Norte 0 904.2 -1.3 24
2019-08-21 17:00:00 28.6 -- -- 18 Norte 0 904.5 -1.3 25
2019-08-21 16:00:00 28 -- -- 20 Norte 0 904.9 -1.4 27
2019-08-21 15:00:00 26.5 -- -- 18 Norte 0 905.5 -1.2 30
2019-08-21 14:00:00 25.3 -- -- 14 Norte 0 905.8 -1 36
2019-08-21 13:00:00 22.6 -- -- 14 Norte 0 906.3 -0.6 42
2019-08-21 12:00:00 20.5 -- -- 14 Norte 0 906.7 0 50
2019-08-21 11:00:00 18.8 -- -- 12 Norte 0 906.8 -0.1 54
2019-08-21 10:00:00 17 -- -- 14 Norte 0 906.9 0.2 61
2019-08-21 09:00:00 15 -- -- 14 Norte 0 906.7 -0.2 72
2019-08-21 08:00:00 11.7 -- -- 14 Norte 0 906.9 -0.4 83
2019-08-21 07:00:00 11 -- -- 14 Norte 0 906.7 -0.5 85
2019-08-21 06:00:00 10.8 -- -- 11 Norte 0 906.9 -1 80
2019-08-21 05:00:00 11.9 -- -- 10 Norte 0 907.3 -0.6 78
2019-08-21 04:00:00 11.8 -- -- 8 Norte 0 907.2 -0.7 76
2019-08-21 03:00:00 12.1 -- -- 10 Norte 0 907.9 0.3 72
2019-08-21 02:00:00 14 -- -- 13 Norte 0 907.9 0.5 65
2019-08-21 01:00:00 14 -- -- 10 Norte 0 907.9 1.3 64
2019-08-21 00:00:00 15.8 -- -- 8 Norte 0 907.6 1.5 55